createdAt,value
2019-06-20T00:00:50.119Z,1003.03
2019-06-20T00:01:50.060Z,1002.99
2019-06-20T00:03:03.563Z,1003.01
2019-06-20T00:03:50.027Z,1003.03
2019-06-20T00:04:50.049Z,1003.04
2019-06-20T00:05:49.999Z,1003.02
2019-06-20T00:06:50.124Z,1002.97
2019-06-20T00:07:49.971Z,1002.99
2019-06-20T00:08:49.960Z,1002.97
2019-06-20T00:09:52.438Z,1002.99
2019-06-20T00:10:50.022Z,1003.01
2019-06-20T00:11:49.957Z,1003.04
2019-06-20T00:13:00.003Z,1003.02
2019-06-20T00:13:50.955Z,1003.08
2019-06-20T00:14:49.954Z,1003.06
2019-06-20T00:15:49.993Z,1003.08
2019-06-20T00:16:50.065Z,1003.14
2019-06-20T00:17:49.935Z,1003.14
2019-06-20T00:18:49.870Z,1003.14
2019-06-20T00:19:49.845Z,1003.20
2019-06-20T00:20:49.855Z,1003.25
2019-06-20T00:21:49.820Z,1003.20
2019-06-20T00:22:49.830Z,1003.19
2019-06-20T00:24:03.396Z,1003.13
2019-06-20T00:24:57.991Z,1003.16
2019-06-20T00:25:49.815Z,1003.16
2019-06-20T00:26:49.793Z,1003.17
2019-06-20T00:27:49.777Z,1003.21
2019-06-20T00:28:49.763Z,1003.20
2019-06-20T00:29:49.756Z,1003.25
2019-06-20T00:30:49.723Z,1003.18
2019-06-20T00:31:49.754Z,1003.15
2019-06-20T00:32:49.723Z,1003.15
2019-06-20T00:33:49.687Z,1003.17
2019-06-20T00:34:49.685Z,1003.23
2019-06-20T00:35:58.467Z,1003.23
2019-06-20T00:36:58.606Z,1003.24
2019-06-20T00:37:57.188Z,1003.27
2019-06-20T00:38:57.189Z,1003.25
2019-06-20T00:40:04.175Z,1003.28
2019-06-20T00:40:57.159Z,1003.31
2019-06-20T00:41:49.601Z,1003.37
2019-06-20T00:42:49.607Z,1003.35
2019-06-20T00:43:49.584Z,1003.31
2019-06-20T00:44:57.123Z,1003.31
2019-06-20T00:45:49.563Z,1003.36
2019-06-20T00:46:49.589Z,1003.35
2019-06-20T00:47:49.577Z,1003.39
2019-06-20T00:48:49.565Z,1003.35
2019-06-20T00:49:49.618Z,1003.33
2019-06-20T00:50:49.509Z,1003.36
2019-06-20T00:51:57.039Z,1003.44
2019-06-20T00:53:04.312Z,1003.42
2019-06-20T00:53:58.020Z,1003.41
2019-06-20T00:54:49.465Z,1003.43
2019-06-20T00:55:49.499Z,1003.43
2019-06-20T00:56:49.491Z,1003.51
2019-06-20T00:57:49.455Z,1003.53
2019-06-20T00:58:49.501Z,1003.56
2019-06-20T00:59:49.453Z,1003.55
2019-06-20T01:00:49.398Z,1003.58
2019-06-20T01:01:49.384Z,1003.56
2019-06-20T01:02:49.376Z,1003.62
2019-06-20T01:03:49.383Z,1003.59
2019-06-20T01:04:49.393Z,1003.63
2019-06-20T01:05:49.399Z,1003.69
2019-06-20T01:06:49.386Z,1003.67
2019-06-20T01:07:49.368Z,1003.66
2019-06-20T01:08:49.360Z,1003.69
2019-06-20T01:09:49.333Z,1003.70
2019-06-20T01:10:49.292Z,1003.74
2019-06-20T01:11:49.317Z,1003.70
2019-06-20T01:12:49.271Z,1003.68
2019-06-20T01:13:52.599Z,1003.75
2019-06-20T01:14:49.264Z,1003.73
2019-06-20T01:15:49.243Z,1003.77
2019-06-20T01:16:49.234Z,1003.80
2019-06-20T01:17:49.228Z,1003.80
2019-06-20T01:18:49.209Z,1003.80
2019-06-20T01:19:49.221Z,1003.84
2019-06-20T01:20:49.209Z,1003.82
2019-06-20T01:21:49.204Z,1003.81
2019-06-20T01:22:49.162Z,1003.82
2019-06-20T01:23:49.157Z,1003.88
2019-06-20T01:24:49.145Z,1003.84
2019-06-20T01:25:49.147Z,1003.92
2019-06-20T01:26:49.121Z,1003.88
2019-06-20T01:27:49.121Z,1003.95
2019-06-20T01:28:49.100Z,1003.99
2019-06-20T01:29:49.152Z,1003.93
2019-06-20T01:30:49.095Z,1003.98
2019-06-20T01:31:49.076Z,1004.02
2019-06-20T01:32:49.061Z,1003.98
2019-06-20T01:33:49.039Z,1003.94
2019-06-20T01:34:49.036Z,1003.96
2019-06-20T01:35:49.048Z,1003.96
2019-06-20T01:36:49.014Z,1003.98
2019-06-20T01:37:49.004Z,1003.98
2019-06-20T01:38:48.987Z,1003.92
2019-06-20T01:39:48.983Z,1003.94
2019-06-20T01:40:48.985Z,1003.99
2019-06-20T01:41:48.953Z,1004.03
2019-06-20T01:42:48.950Z,1004.08
2019-06-20T01:43:51.048Z,1004.07
2019-06-20T01:44:48.961Z,1004.12
2019-06-20T01:45:48.936Z,1004.10
2019-06-20T01:46:48.908Z,1004.10
2019-06-20T01:47:48.892Z,1004.03
2019-06-20T01:48:48.885Z,1004.08
2019-06-20T01:49:48.866Z,1004.03
2019-06-20T01:50:48.857Z,1004.04
2019-06-20T01:51:48.909Z,1004.06
2019-06-20T01:52:48.834Z,1004.08
2019-06-20T01:53:48.827Z,1004.10
2019-06-20T01:54:48.814Z,1004.10
2019-06-20T01:55:48.813Z,1004.10
2019-06-20T01:56:48.824Z,1004.05
2019-06-20T01:57:48.789Z,1004.04
2019-06-20T01:58:48.778Z,1004.06
2019-06-20T01:59:48.773Z,1004.06
2019-06-20T02:00:48.756Z,1004.08
2019-06-20T02:01:48.771Z,1004.14
2019-06-20T02:02:48.752Z,1004.16
2019-06-20T02:03:48.737Z,1004.16
2019-06-20T02:04:48.710Z,1004.19
2019-06-20T02:05:48.700Z,1004.16
2019-06-20T02:06:48.685Z,1004.14
2019-06-20T02:07:48.693Z,1004.11
2019-06-20T02:08:48.677Z,1004.16
2019-06-20T02:09:48.653Z,1004.18
2019-06-20T02:10:48.657Z,1004.15
2019-06-20T02:11:48.640Z,1004.19
2019-06-20T02:12:48.651Z,1004.22
2019-06-20T02:13:48.609Z,1004.19
2019-06-20T02:14:48.607Z,1004.18
2019-06-20T02:15:48.634Z,1004.22
2019-06-20T02:16:48.586Z,1004.21
2019-06-20T02:17:48.601Z,1004.22
2019-06-20T02:18:48.570Z,1004.22
2019-06-20T02:19:48.550Z,1004.24
2019-06-20T02:20:48.549Z,1004.24
2019-06-20T02:21:48.530Z,1004.24
2019-06-20T02:22:48.523Z,1004.23
2019-06-20T02:23:48.527Z,1004.24
2019-06-20T02:24:48.508Z,1004.25
2019-06-20T02:25:48.484Z,1004.26
2019-06-20T02:26:48.487Z,1004.25
2019-06-20T02:27:48.460Z,1004.19
2019-06-20T02:28:48.471Z,1004.24
2019-06-20T02:29:48.451Z,1004.20
2019-06-20T02:30:48.475Z,1004.19
2019-06-20T02:31:48.427Z,1004.22
2019-06-20T02:32:48.455Z,1004.20
2019-06-20T02:33:48.442Z,1004.18
2019-06-20T02:34:48.394Z,1004.21
2019-06-20T02:35:48.423Z,1004.18
2019-06-20T02:36:48.370Z,1004.20
2019-06-20T02:37:48.354Z,1004.20
2019-06-20T02:38:48.378Z,1004.20
2019-06-20T02:39:48.340Z,1004.17
2019-06-20T02:40:48.335Z,1004.16
2019-06-20T02:41:48.352Z,1004.20
2019-06-20T02:42:48.305Z,1004.19
2019-06-20T02:43:48.317Z,1004.20
2019-06-20T02:44:48.288Z,1004.25
2019-06-20T02:45:48.270Z,1004.23
2019-06-20T02:46:48.262Z,1004.26
2019-06-20T02:47:48.265Z,1004.29
2019-06-20T02:48:48.253Z,1004.30
2019-06-20T02:49:48.237Z,1004.32
2019-06-20T02:50:55.854Z,1004.30
2019-06-20T02:51:48.278Z,1004.37
2019-06-20T02:53:00.762Z,1004.36
2019-06-20T02:53:48.246Z,1004.35
2019-06-20T02:54:55.789Z,1004.39
2019-06-20T02:55:55.714Z,1004.34
2019-06-20T02:58:09.702Z,1004.28
2019-06-20T02:59:18.365Z,1004.31
2019-06-20T03:00:17.212Z,1004.31
2019-06-20T03:01:17.156Z,1004.31
2019-06-20T03:03:31.110Z,1004.31
2019-06-20T03:04:31.121Z,1004.33
2019-06-20T03:05:31.088Z,1004.29
2019-06-20T03:06:31.150Z,1004.36
2019-06-20T03:07:31.074Z,1004.29
2019-06-20T03:08:31.057Z,1004.44
2019-06-20T03:09:31.040Z,1004.47
2019-06-20T03:10:31.056Z,1004.44
2019-06-20T03:11:31.038Z,1004.40
2019-06-20T03:12:31.005Z,1004.43
2019-06-20T03:13:31.015Z,1004.44
2019-06-20T03:14:44.552Z,1004.47
2019-06-20T03:15:31.997Z,1004.45
2019-06-20T03:16:30.971Z,1004.48
2019-06-20T03:17:30.972Z,1004.51
2019-06-20T03:18:30.937Z,1004.51
2019-06-20T03:19:38.496Z,1004.47
2019-06-20T03:20:44.856Z,1004.45
2019-06-20T03:21:40.814Z,1004.45
2019-06-20T03:22:39.503Z,1004.47
2019-06-20T03:23:37.965Z,1004.52
2019-06-20T03:24:30.878Z,1004.48
2019-06-20T03:25:30.859Z,1004.47
2019-06-20T03:26:30.880Z,1004.52
2019-06-20T03:27:30.862Z,1004.50
2019-06-20T03:28:30.830Z,1004.50
2019-06-20T03:29:30.842Z,1004.47
2019-06-20T03:30:30.819Z,1004.48
2019-06-20T03:31:31.024Z,1004.49
2019-06-20T03:32:30.785Z,1004.51
2019-06-20T03:33:30.791Z,1004.51
2019-06-20T03:34:30.775Z,1004.56
2019-06-20T03:35:30.784Z,1004.61
2019-06-20T03:36:30.777Z,1004.66
2019-06-20T03:37:30.755Z,1004.63
2019-06-20T03:38:30.720Z,1004.62
2019-06-20T03:39:30.710Z,1004.62
2019-06-20T03:40:30.725Z,1004.68
2019-06-20T03:41:30.694Z,1004.60
2019-06-20T03:42:30.733Z,1004.64
2019-06-20T03:43:30.752Z,1004.62
2019-06-20T03:44:30.657Z,1004.67
2019-06-20T03:45:30.646Z,1004.66
2019-06-20T03:46:30.651Z,1004.72
2019-06-20T03:47:30.648Z,1004.78
2019-06-20T03:48:30.606Z,1004.75
2019-06-20T03:49:30.643Z,1004.81
2019-06-20T03:50:30.584Z,1004.78
2019-06-20T03:51:30.614Z,1004.81
2019-06-20T03:52:30.591Z,1004.79
2019-06-20T03:53:30.565Z,1004.86
2019-06-20T03:54:30.543Z,1004.83
2019-06-20T03:55:30.533Z,1004.85
2019-06-20T03:56:30.517Z,1004.83
2019-06-20T03:57:30.546Z,1004.79
2019-06-20T03:58:30.511Z,1004.82
2019-06-20T03:59:30.485Z,1004.81
2019-06-20T04:00:30.492Z,1004.86
2019-06-20T04:01:30.466Z,1004.85
2019-06-20T04:02:30.472Z,1004.85
2019-06-20T04:03:30.463Z,1004.82
2019-06-20T04:04:30.458Z,1004.86
2019-06-20T04:05:30.417Z,1004.88
2019-06-20T04:06:30.408Z,1004.87
2019-06-20T04:07:30.410Z,1004.86
2019-06-20T04:08:30.407Z,1004.87
2019-06-20T04:09:30.411Z,1004.91
2019-06-20T04:10:30.430Z,1004.91
2019-06-20T04:11:30.409Z,1004.86
2019-06-20T04:12:30.359Z,1004.89
2019-06-20T04:13:30.355Z,1004.88
2019-06-20T04:14:30.329Z,1004.88
2019-06-20T04:15:30.310Z,1004.93
2019-06-20T04:16:30.300Z,1004.94
2019-06-20T04:17:30.292Z,1004.94
2019-06-20T04:18:30.299Z,1004.94
2019-06-20T04:19:30.274Z,1004.97
2019-06-20T04:20:30.261Z,1004.95
2019-06-20T04:21:30.295Z,1004.96
2019-06-20T04:22:30.234Z,1004.97
2019-06-20T04:23:30.278Z,1004.99
2019-06-20T04:24:30.223Z,1005.00
2019-06-20T04:25:30.205Z,1004.99
2019-06-20T04:26:30.191Z,1005.01
2019-06-20T04:27:30.190Z,1005.08
2019-06-20T04:28:30.212Z,1005.01
2019-06-20T04:29:30.161Z,1005.04
2019-06-20T04:30:30.148Z,1005.05
2019-06-20T04:31:30.146Z,1005.13
2019-06-20T04:32:30.129Z,1005.10
2019-06-20T04:33:30.162Z,1005.11
2019-06-20T04:34:30.131Z,1005.09
2019-06-20T04:35:30.099Z,1005.13
2019-06-20T04:36:30.090Z,1005.11
2019-06-20T04:37:30.079Z,1005.10
2019-06-20T04:38:30.065Z,1005.14
2019-06-20T04:39:30.096Z,1005.16
2019-06-20T04:40:30.043Z,1005.13
2019-06-20T04:41:30.027Z,1005.17
2019-06-20T04:42:30.022Z,1005.21
2019-06-20T04:43:30.101Z,1005.16
2019-06-20T04:44:30.044Z,1005.23
2019-06-20T04:45:35.169Z,1005.16
2019-06-20T04:46:30.977Z,1005.16
2019-06-20T04:47:29.966Z,1005.23
2019-06-20T04:48:29.976Z,1005.21
2019-06-20T04:49:29.984Z,1005.21
2019-06-20T04:50:29.974Z,1005.20
2019-06-20T04:51:29.933Z,1005.19
2019-06-20T04:52:29.918Z,1005.21
2019-06-20T04:53:29.926Z,1005.27
2019-06-20T04:54:29.894Z,1005.20
2019-06-20T04:55:29.887Z,1005.25
2019-06-20T04:56:29.885Z,1005.23
2019-06-20T04:57:29.912Z,1005.24
2019-06-20T04:58:29.848Z,1005.24
2019-06-20T04:59:29.866Z,1005.24
2019-06-20T05:00:29.827Z,1005.29
2019-06-20T05:01:29.847Z,1005.24
2019-06-20T05:02:29.842Z,1005.24
2019-06-20T05:03:29.907Z,1005.24
2019-06-20T05:04:29.823Z,1005.25
2019-06-20T05:05:29.778Z,1005.22
2019-06-20T05:06:29.769Z,1005.26
2019-06-20T05:07:29.776Z,1005.25
2019-06-20T05:08:29.758Z,1005.22
2019-06-20T05:09:29.789Z,1005.26
2019-06-20T05:10:29.748Z,1005.24
2019-06-20T05:11:29.709Z,1005.25
2019-06-20T05:12:29.716Z,1005.26
2019-06-20T05:13:29.763Z,1005.33
2019-06-20T05:14:29.679Z,1005.30
2019-06-20T05:15:29.666Z,1005.37
2019-06-20T05:16:29.662Z,1005.34
2019-06-20T05:17:29.649Z,1005.32
2019-06-20T05:18:29.685Z,1005.32
2019-06-20T05:19:29.647Z,1005.37
2019-06-20T05:20:29.614Z,1005.34
2019-06-20T05:21:29.601Z,1005.35
2019-06-20T05:22:29.591Z,1005.35
2019-06-20T05:23:29.589Z,1005.33
2019-06-20T05:24:29.646Z,1005.34
2019-06-20T05:25:29.563Z,1005.35
2019-06-20T05:26:29.548Z,1005.34
2019-06-20T05:27:29.547Z,1005.37
2019-06-20T05:28:29.542Z,1005.35
2019-06-20T05:29:29.669Z,1005.41
2019-06-20T05:30:38.544Z,1005.34
2019-06-20T05:31:37.043Z,1005.40
2019-06-20T05:32:29.500Z,1005.39
2019-06-20T05:33:29.479Z,1005.36
2019-06-20T05:34:29.462Z,1005.42
2019-06-20T05:35:29.495Z,1005.40
2019-06-20T05:36:29.497Z,1005.43
2019-06-20T05:37:29.435Z,1005.45
2019-06-20T05:38:29.439Z,1005.44
2019-06-20T05:39:29.408Z,1005.43
2019-06-20T05:40:29.418Z,1005.41
2019-06-20T05:41:29.408Z,1005.42
2019-06-20T05:42:29.388Z,1005.44
2019-06-20T05:43:29.375Z,1005.45
2019-06-20T05:44:29.359Z,1005.50
2019-06-20T05:45:29.367Z,1005.46
2019-06-20T05:46:29.641Z,1005.49
2019-06-20T05:47:29.346Z,1005.46
2019-06-20T05:48:29.335Z,1005.49
2019-06-20T05:49:29.303Z,1005.55
2019-06-20T05:50:29.352Z,1005.54
2019-06-20T05:51:29.287Z,1005.56
2019-06-20T05:52:29.275Z,1005.56
2019-06-20T05:53:29.286Z,1005.58
2019-06-20T05:54:29.248Z,1005.60
2019-06-20T05:55:29.259Z,1005.60
2019-06-20T05:56:29.231Z,1005.59
2019-06-20T05:57:29.226Z,1005.59
2019-06-20T05:58:29.265Z,1005.62
2019-06-20T05:59:29.211Z,1005.59
2019-06-20T06:00:29.202Z,1005.61
2019-06-20T06:01:29.362Z,1005.56
2019-06-20T06:02:29.161Z,1005.57
2019-06-20T06:03:29.182Z,1005.64
2019-06-20T06:04:29.280Z,1005.64
2019-06-20T06:05:29.189Z,1005.68
2019-06-20T06:06:29.958Z,1005.71
2019-06-20T06:07:29.116Z,1005.71
2019-06-20T06:08:29.098Z,1005.71
2019-06-20T06:09:29.087Z,1005.74
2019-06-20T06:10:29.131Z,1005.74
2019-06-20T06:11:29.077Z,1005.71
2019-06-20T06:12:29.057Z,1005.72
2019-06-20T06:13:29.043Z,1005.76
2019-06-20T06:14:29.104Z,1005.74
2019-06-20T06:15:29.064Z,1005.77
2019-06-20T06:16:29.016Z,1005.77
2019-06-20T06:17:29.020Z,1005.78
2019-06-20T06:18:29.055Z,1005.69
2019-06-20T06:19:28.980Z,1005.69
2019-06-20T06:20:29.101Z,1005.69
2019-06-20T06:21:28.965Z,1005.71
2019-06-20T06:22:28.957Z,1005.71
2019-06-20T06:23:28.959Z,1005.74
2019-06-20T06:24:28.927Z,1005.80
2019-06-20T06:25:28.935Z,1005.81
2019-06-20T06:26:28.906Z,1005.82
2019-06-20T06:27:28.904Z,1005.82
2019-06-20T06:28:28.887Z,1005.82
2019-06-20T06:29:28.927Z,1005.81
2019-06-20T06:30:28.885Z,1005.83
2019-06-20T06:31:29.381Z,1005.84
2019-06-20T06:32:39.631Z,1005.88
2019-06-20T06:33:29.841Z,1005.80
2019-06-20T06:34:28.827Z,1005.86
2019-06-20T06:35:28.836Z,1005.82
2019-06-20T06:36:28.876Z,1005.86
2019-06-20T06:37:28.787Z,1005.82
2019-06-20T06:38:28.778Z,1005.83
2019-06-20T06:39:28.773Z,1005.91
2019-06-20T06:40:28.761Z,1005.85
2019-06-20T06:41:28.775Z,1005.84
2019-06-20T06:42:28.739Z,1005.85
2019-06-20T06:43:28.738Z,1005.86
2019-06-20T06:44:31.664Z,1005.90
2019-06-20T06:45:28.710Z,1005.83
2019-06-20T06:46:42.972Z,1005.88
2019-06-20T06:47:29.712Z,1005.80
2019-06-20T06:48:28.675Z,1005.81
2019-06-20T06:49:28.664Z,1005.83
2019-06-20T06:50:28.701Z,1005.83
2019-06-20T06:51:28.677Z,1005.80
2019-06-20T06:52:28.627Z,1005.82
2019-06-20T06:53:28.620Z,1005.84
2019-06-20T06:54:28.604Z,1005.83
2019-06-20T06:55:28.595Z,1005.79
2019-06-20T06:56:28.611Z,1005.82
2019-06-20T06:57:28.583Z,1005.82
2019-06-20T06:58:28.563Z,1005.84
2019-06-20T06:59:28.555Z,1005.84
2019-06-20T07:00:28.562Z,1005.84
2019-06-20T07:01:28.564Z,1005.78
2019-06-20T07:02:28.584Z,1005.83
2019-06-20T07:03:28.509Z,1005.84
2019-06-20T07:04:28.506Z,1005.83
2019-06-20T07:05:28.513Z,1005.86
2019-06-20T07:06:28.575Z,1005.87
2019-06-20T07:07:28.508Z,1005.86
2019-06-20T07:08:28.505Z,1005.93
2019-06-20T07:09:28.478Z,1005.93
2019-06-20T07:10:28.442Z,1005.93
2019-06-20T07:11:28.425Z,1005.89
2019-06-20T07:12:28.436Z,1005.92
2019-06-20T07:13:28.410Z,1005.91
2019-06-20T07:14:28.401Z,1005.88
2019-06-20T07:15:40.077Z,1005.87
2019-06-20T07:16:35.959Z,1005.87
2019-06-20T07:17:28.388Z,1005.88
2019-06-20T07:18:28.419Z,1005.88
2019-06-20T07:19:41.963Z,1005.87
2019-06-20T07:20:35.939Z,1005.86
2019-06-20T07:21:28.398Z,1005.87
2019-06-20T07:22:28.367Z,1005.86
2019-06-20T07:23:28.290Z,1005.89
2019-06-20T07:24:28.317Z,1005.91
2019-06-20T07:25:28.331Z,1005.93
2019-06-20T07:26:28.266Z,1005.89
2019-06-20T07:27:28.300Z,1005.85
2019-06-20T07:28:28.324Z,1005.87
2019-06-20T07:29:28.228Z,1005.91
2019-06-20T07:30:28.235Z,1005.87
2019-06-20T07:31:28.253Z,1005.91
2019-06-20T07:32:28.221Z,1005.87
2019-06-20T07:33:28.187Z,1005.88
2019-06-20T07:34:28.174Z,1005.85
2019-06-20T07:35:28.182Z,1005.84
2019-06-20T07:36:28.162Z,1005.85
2019-06-20T07:37:28.173Z,1005.90
2019-06-20T07:38:28.133Z,1005.89
2019-06-20T07:39:28.130Z,1005.82
2019-06-20T07:40:28.122Z,1005.82
2019-06-20T07:41:28.123Z,1005.89
2019-06-20T07:42:28.119Z,1005.86
2019-06-20T07:43:28.118Z,1005.87
2019-06-20T07:44:28.067Z,1005.89
2019-06-20T07:45:28.054Z,1005.92
2019-06-20T07:46:28.094Z,1005.92
2019-06-20T07:47:28.047Z,1005.85
2019-06-20T07:48:36.724Z,1005.89
2019-06-20T07:49:28.016Z,1005.88
2019-06-20T07:50:28.005Z,1005.89
2019-06-20T07:51:27.998Z,1005.91
2019-06-20T07:52:28.005Z,1005.96
2019-06-20T07:53:27.994Z,1005.93
2019-06-20T07:54:27.997Z,1005.87
2019-06-20T07:55:27.969Z,1005.88
2019-06-20T07:56:27.943Z,1005.89
2019-06-20T07:57:27.923Z,1005.85
2019-06-20T07:58:27.977Z,1005.92
2019-06-20T07:59:27.930Z,1005.88
2019-06-20T08:00:27.915Z,1005.85
2019-06-20T08:01:27.926Z,1005.82
2019-06-20T08:02:27.869Z,1005.87
2019-06-20T08:03:27.930Z,1005.90
2019-06-20T08:04:27.893Z,1005.92
2019-06-20T08:05:27.847Z,1005.90
2019-06-20T08:06:27.912Z,1005.89
2019-06-20T08:07:27.817Z,1005.97
2019-06-20T08:08:27.841Z,1005.93
2019-06-20T08:09:43.956Z,1005.91
2019-06-20T08:10:28.835Z,1005.95
2019-06-20T08:11:27.796Z,1005.93
2019-06-20T08:12:27.792Z,1005.95
2019-06-20T08:13:27.800Z,1005.91
2019-06-20T08:14:27.745Z,1005.93
2019-06-20T08:15:27.734Z,1005.94
2019-06-20T08:16:27.780Z,1005.94
2019-06-20T08:17:35.328Z,1005.94
2019-06-20T08:18:28.749Z,1005.94
2019-06-20T08:19:27.686Z,1005.94
2019-06-20T08:20:27.678Z,1005.90
2019-06-20T08:21:27.677Z,1005.90
2019-06-20T08:22:27.657Z,1005.93
2019-06-20T08:23:27.685Z,1005.93
2019-06-20T08:24:27.632Z,1005.95
2019-06-20T08:25:27.669Z,1006.02
2019-06-20T08:26:27.611Z,1006.02
2019-06-20T08:27:27.712Z,1006.02
2019-06-20T08:28:27.619Z,1006.06
2019-06-20T08:29:27.583Z,1006.02
2019-06-20T08:30:27.607Z,1005.99
2019-06-20T08:31:27.595Z,1006.15
2019-06-20T08:32:27.555Z,1006.06
2019-06-20T08:33:27.574Z,1006.06
2019-06-20T08:34:27.569Z,1006.14
2019-06-20T08:35:27.517Z,1006.13
2019-06-20T08:36:27.513Z,1006.18
2019-06-20T08:37:27.513Z,1006.19
2019-06-20T08:38:27.482Z,1006.23
2019-06-20T08:39:29.399Z,1006.18
2019-06-20T08:40:27.480Z,1005.92
2019-06-20T08:41:27.495Z,1005.99
2019-06-20T08:42:27.465Z,1006.03
2019-06-20T08:43:27.435Z,1005.94
2019-06-20T08:44:27.427Z,1006.00
2019-06-20T08:45:27.424Z,1006.01
2019-06-20T08:46:27.407Z,1006.02
2019-06-20T08:47:27.426Z,1005.97
2019-06-20T08:48:27.380Z,1006.08
2019-06-20T08:49:27.373Z,1006.08
2019-06-20T08:50:42.001Z,1005.98
2019-06-20T08:51:35.924Z,1006.21
2019-06-20T08:52:36.368Z,1006.27
2019-06-20T08:53:27.338Z,1006.12
2019-06-20T08:54:27.397Z,1006.04
2019-06-20T08:55:27.308Z,1006.08
2019-06-20T08:56:27.298Z,1006.02
2019-06-20T08:57:40.882Z,1006.02
2019-06-20T08:58:27.367Z,1006.01
2019-06-20T08:59:27.344Z,1006.07
2019-06-20T09:00:34.810Z,1006.12
2019-06-20T09:01:27.288Z,1006.25
2019-06-20T09:02:37.327Z,1006.09
2019-06-20T09:03:36.030Z,1006.05
2019-06-20T09:04:34.812Z,1006.10
2019-06-20T09:05:34.835Z,1006.03
2019-06-20T09:06:27.262Z,1006.04
2019-06-20T09:07:27.181Z,1006.05
2019-06-20T09:08:38.043Z,1006.02
2019-06-20T09:09:34.718Z,1006.07
2019-06-20T09:10:40.857Z,1006.07
2019-06-20T09:11:27.158Z,1006.03
2019-06-20T09:12:27.165Z,1006.04
2019-06-20T09:13:27.147Z,1006.01
2019-06-20T09:14:27.105Z,1006.04
2019-06-20T09:15:27.104Z,1006.00
2019-06-20T09:16:27.099Z,1006.05
2019-06-20T09:17:27.076Z,1006.07
2019-06-20T09:18:27.104Z,1006.13
2019-06-20T09:19:40.661Z,1006.17
2019-06-20T09:23:25.293Z,1006.06
2019-06-20T09:24:25.333Z,1006.07
2019-06-20T09:26:49.070Z,1006.13
2019-06-20T09:27:56.179Z,1006.12
2019-06-20T09:35:57.992Z,1006.20
2019-06-20T09:36:59.296Z,1006.19
2019-06-20T09:37:59.201Z,1006.18
2019-06-20T09:38:59.498Z,1006.27
2019-06-20T09:39:59.176Z,1006.16
2019-06-20T09:40:59.161Z,1006.20
2019-06-20T09:41:58.905Z,1006.19
2019-06-20T09:42:58.790Z,1006.19
2019-06-20T09:43:58.549Z,1006.25
2019-06-20T09:44:58.468Z,1006.23
2019-06-20T09:45:58.401Z,1006.23
2019-06-20T09:48:20.356Z,1006.26
2019-06-20T09:49:30.622Z,1006.29
2019-06-20T09:52:53.181Z,1006.31
2019-06-20T09:54:03.780Z,1006.25
2019-06-20T09:55:00.582Z,1006.21
2019-06-20T09:55:51.982Z,1006.45
2019-06-20T09:56:59.508Z,1006.25
2019-06-20T09:57:52.057Z,1006.38
2019-06-20T10:00:13.517Z,1006.24
2019-06-20T10:01:13.405Z,1006.18
2019-06-20T10:02:21.082Z,1006.11
2019-06-20T10:03:22.286Z,1006.19
2019-06-20T10:04:13.389Z,1006.16
2019-06-20T10:05:13.354Z,1006.22
2019-06-20T10:06:14.660Z,1006.22
2019-06-20T10:07:13.345Z,1006.24
2019-06-20T10:08:13.321Z,1006.23
2019-06-20T10:09:13.329Z,1006.20
2019-06-20T10:10:13.307Z,1006.22
2019-06-20T10:11:13.305Z,1006.24
2019-06-20T10:12:13.284Z,1006.17
2019-06-20T10:13:13.290Z,1006.19
2019-06-20T10:14:13.323Z,1006.15
2019-06-20T10:15:13.251Z,1006.16
2019-06-20T10:16:13.306Z,1006.15
2019-06-20T10:17:13.246Z,1006.16
2019-06-20T10:18:13.223Z,1006.19
2019-06-20T10:19:13.569Z,1006.17
2019-06-20T10:20:13.283Z,1006.17
2019-06-20T10:21:13.238Z,1006.13
2019-06-20T10:22:13.195Z,1006.10
2019-06-20T10:23:13.190Z,1006.07
2019-06-20T10:24:13.176Z,1006.11
2019-06-20T10:25:13.167Z,1006.08
2019-06-20T10:26:13.144Z,1006.13
2019-06-20T10:27:13.189Z,1006.06
2019-06-20T10:28:13.212Z,1006.09
2019-06-20T10:29:13.196Z,1006.09
2019-06-20T10:30:14.639Z,1006.16
2019-06-20T10:31:13.076Z,1006.16
2019-06-20T10:32:13.106Z,1006.22
2019-06-20T10:33:13.052Z,1006.22
2019-06-20T10:34:13.048Z,1006.22
2019-06-20T10:35:13.087Z,1006.21
2019-06-20T10:36:13.024Z,1006.21
2019-06-20T10:37:13.012Z,1006.20
2019-06-20T10:38:13.004Z,1006.14
2019-06-20T10:39:13.031Z,1006.17
2019-06-20T10:40:13.020Z,1006.21
2019-06-20T10:41:13.180Z,1006.17
2019-06-20T10:42:13.155Z,1006.20
2019-06-20T10:43:12.944Z,1006.19
2019-06-20T10:44:12.938Z,1006.16
2019-06-20T10:45:12.965Z,1006.24
2019-06-20T10:46:12.943Z,1006.19
2019-06-20T10:47:12.920Z,1006.18
2019-06-20T10:48:12.906Z,1006.12
2019-06-20T10:49:12.889Z,1006.21
2019-06-20T10:50:12.917Z,1006.17
2019-06-20T10:51:12.864Z,1006.19
2019-06-20T10:54:43.282Z,1006.16
2019-06-20T10:55:51.173Z,1006.15
2019-06-20T10:58:03.107Z,1006.24
2019-06-20T10:59:10.682Z,1006.18
2019-06-20T11:00:10.645Z,1006.20
2019-06-20T11:01:12.863Z,1006.19
2019-06-20T11:02:16.621Z,1006.20
2019-06-20T11:03:10.662Z,1006.21
2019-06-20T11:06:39.954Z,1006.19
2019-06-20T11:11:19.829Z,1006.25
2019-06-20T11:12:42.580Z,1006.24
2019-06-20T11:13:28.364Z,1006.25
2019-06-20T11:14:28.289Z,1006.22
2019-06-20T11:15:34.367Z,1006.22
2019-06-20T11:16:29.650Z,1006.26
2019-06-20T11:17:27.294Z,1006.23
2019-06-20T11:18:28.569Z,1006.24
2019-06-20T11:19:19.709Z,1006.19
2019-06-20T11:20:27.315Z,1006.17
2019-06-20T11:21:29.779Z,1006.21
2019-06-20T11:23:54.552Z,1006.15
2019-06-20T11:24:54.685Z,1006.09
2019-06-20T11:27:21.705Z,1006.05
2019-06-20T11:28:29.190Z,1006.08
2019-06-20T11:36:54.855Z,1005.99
2019-06-20T11:41:39.908Z,1006.00
2019-06-20T11:42:40.015Z,1006.01
2019-06-20T11:43:40.075Z,1006.02
2019-06-20T11:44:40.869Z,1005.96
2019-06-20T11:45:40.919Z,1005.96
2019-06-20T11:46:40.656Z,1005.97
2019-06-20T11:47:40.521Z,1005.97
2019-06-20T11:48:40.590Z,1005.99
2019-06-20T11:49:40.388Z,1005.94
2019-06-20T11:50:40.051Z,1005.97
2019-06-20T11:51:39.903Z,1005.98
2019-06-20T11:52:42.403Z,1005.94
2019-06-20T11:53:40.651Z,1005.96
2019-06-20T11:54:40.319Z,1005.98
2019-06-20T11:55:39.736Z,1006.00
2019-06-20T11:56:39.742Z,1006.00
2019-06-20T11:57:39.721Z,1006.00
2019-06-20T11:58:39.721Z,1005.98
2019-06-20T11:59:39.693Z,1006.02
2019-06-20T12:00:39.682Z,1005.98
2019-06-20T12:01:40.985Z,1005.96
2019-06-20T12:02:41.143Z,1005.93
2019-06-20T12:03:40.744Z,1005.92
2019-06-20T12:04:41.099Z,1005.93
2019-06-20T12:05:40.181Z,1005.91
2019-06-20T12:06:40.157Z,1005.94
2019-06-20T12:07:41.387Z,1005.96
2019-06-20T12:08:40.658Z,1005.87
2019-06-20T12:09:40.950Z,1005.91
2019-06-20T12:10:40.869Z,1005.87
2019-06-20T12:11:40.642Z,1005.89
2019-06-20T12:12:40.893Z,1005.91
2019-06-20T12:13:40.417Z,1005.91
2019-06-20T12:14:41.050Z,1005.94
2019-06-20T12:15:41.094Z,1005.93
2019-06-20T12:16:40.851Z,1005.89
2019-06-20T12:17:41.290Z,1005.96
2019-06-20T12:18:40.201Z,1005.92
2019-06-20T12:19:40.824Z,1005.88
2019-06-20T12:20:41.050Z,1005.87
2019-06-20T12:21:40.953Z,1005.87
2019-06-20T12:22:39.917Z,1005.84
2019-06-20T12:23:40.593Z,1005.87
2019-06-20T12:24:40.008Z,1005.86
2019-06-20T12:25:40.926Z,1005.81
2019-06-20T12:26:40.656Z,1005.85
2019-06-20T12:27:40.662Z,1005.84
2019-06-20T12:28:40.744Z,1005.82
2019-06-20T12:29:40.576Z,1005.81
2019-06-20T12:30:40.150Z,1005.86
2019-06-20T12:31:39.560Z,1005.83
2019-06-20T12:32:40.526Z,1005.83
2019-06-20T12:33:40.813Z,1005.82
2019-06-20T12:34:40.493Z,1005.84
2019-06-20T12:35:40.950Z,1005.83
2019-06-20T12:36:40.820Z,1005.77
2019-06-20T12:37:40.474Z,1005.84
2019-06-20T12:38:39.780Z,1005.76
2019-06-20T12:39:40.411Z,1005.81
2019-06-20T12:40:40.883Z,1005.81
2019-06-20T12:41:39.702Z,1005.77
2019-06-20T12:42:41.254Z,1005.80
2019-06-20T12:43:40.336Z,1005.84
2019-06-20T12:44:40.081Z,1005.85
2019-06-20T12:45:40.001Z,1005.79
2019-06-20T12:46:39.924Z,1005.79
2019-06-20T12:47:40.198Z,1005.82
2019-06-20T12:48:39.948Z,1005.84
2019-06-20T12:49:40.240Z,1005.84